Terminal Aerodrome Forecast
Issued by NWS Wilmington, NC

Home | Current Version | Previous Version | Text Only | Print | Product List | Glossary On
Versions: 1 2 3 4 5 6 7 8 9 10 11 12 13 14
000
FTUS42 KILM 252322
TAFMYR
TAF
KMYR 252322Z 2600/2624 21006KT P6SM -SHRA OVC060
     FM260600 02006KT P6SM BKN045
     FM261700 06007KT P6SM BKN050
     FM262300 15006KT P6SM SCT050
      AMD LTD TO CLD VIS AND WIND 2603/2610=

USA.gov is the U.S. government's official web portal to all federal, state and local government web resources and services.